Aliso Viejo, California
Current Conditions -  °F | °C
As of 3:53 PM on Monday 20 Oct 2014 (Local Time) from KSNA Reporting Station
Scattered Clouds Scattered Clouds  
Wind Chill: 24°   Ceiling: Unl
Heat Index: 24°   Visibility: 10mi
Dew Point: 15°   Wind: 8mph
Humidity: 57%   Direction: 270°W
Pressure: 29.87"   Gusts: NA
Location:  33.57°N, 117.72°W
Report Text: KSNA 202253Z 27007KT 10SM SCT250 24/15 A2987 RMK AO2 SLP115 T02390150
Loading
Personal Weather Stations






























Interactive Weather Map
Tropical Storm Tracking
New forecast layout! Learn more

10-Day Weather Forecast

Advertisements
Track Severe Weather on mobile